Terminal Aerodrome Forecast
Issued by NWS

Home | Current Version | Previous Version | Text Only | Print | Product List | Glossary On
Versions: 1 2 3 4 5 6 7 8 9 10 11 12 13 14
000
FTUS45 KPIH 061232 AAA
TAFSUN
TAF AMD
KSUN 061232Z 0613/0712 31006KT P6SM -SHRA OVC090
     FM061900 15008KT P6SM VCTS SCT070CB BKN120
     FM070200 30006KT P6SM VCSH BKN110=

USA.gov is the U.S. government's official web portal to all federal, state and local government web resources and services.